Time;durP1;ratioP1;P1;durP2;ratioP2;P2;SDS_P1;SDS_P2;PMS_P1;PMS_P2;Temp;Humidity;BMP_temperature;BMP_pressure;BME280_temperature;BME280_humidity;BME280_pressure;Samples;Min_cycle;Max_cycle;Signal;HPM_P1;HPM_P2
2021/11/22 00:00:25;;;;;;;4.30;0.70;;;4.50;96.00;;;;;;5065309;28;20022;-74
2021/11/22 00:02:53;;;;;;;7.03;0.90;;;4.50;96.00;;;;;;5033246;28;20035;-74
2021/11/22 00:05:18;;;;;;;5.97;1.20;;;4.60;96.40;;;;;;5033119;28;20029;-74
2021/11/22 00:07:44;;;;;;;4.77;0.90;;;4.60;96.60;;;;;;5032055;28;20032;-74
2021/11/22 00:10:10;;;;;;;4.43;0.80;;;4.60;96.50;;;;;;5048461;28;20143;-73
2021/11/22 00:12:37;;;;;;;4.87;1.07;;;4.70;96.50;;;;;;5033105;28;20033;-73
2021/11/22 00:15:05;;;;;;;4.80;0.60;;;4.70;96.40;;;;;;5033120;28;20029;-73
2021/11/22 00:17:32;;;;;;;8.43;0.80;;;4.80;96.40;;;;;;5033044;28;20017;-73
2021/11/22 00:19:58;;;;;;;4.17;0.63;;;4.70;96.40;;;;;;5033056;28;20037;-73
2021/11/22 00:22:25;;;;;;;5.57;0.80;;;4.80;96.40;;;;;;5031670;28;20026;-73
2021/11/22 00:24:51;;;;;;;3.73;0.87;;;4.70;96.40;;;;;;5064923;28;20394;-73
2021/11/22 00:27:17;;;;;;;6.57;0.87;;;4.70;96.40;;;;;;5032906;28;20108;-73
2021/11/22 00:29:43;;;;;;;4.03;1.10;;;4.70;96.40;;;;;;5048493;28;20459;-73
2021/11/22 00:32:10;;;;;;;4.83;0.80;;;4.70;96.40;;;;;;5031716;28;20034;-73
2021/11/22 00:34:42;;;;;;;1.80;0.63;;;4.70;96.40;;;;;;5032927;28;20470;-73
2021/11/22 00:37:24;;;;;;;5.53;0.70;;;4.70;96.50;;;;;;5049154;28;20482;-73
2021/11/22 00:39:50;;;;;;;2.83;0.70;;;4.70;96.50;;;;;;5032711;28;20045;-73
2021/11/22 00:42:16;;;;;;;5.50;0.80;;;4.70;96.50;;;;;;5032936;28;20528;-73
2021/11/22 00:44:42;;;;;;;7.50;1.10;;;4.80;96.50;;;;;;5015955;28;20025;-73
2021/11/22 00:47:10;;;;;;;6.63;0.80;;;4.70;96.70;;;;;;5036618;28;20080;-73
2021/11/22 00:49:37;;;;;;;7.17;0.70;;;4.70;96.60;;;;;;5036606;28;20057;-73
2021/11/22 00:52:04;;;;;;;4.07;1.10;;;4.80;96.60;;;;;;5035485;28;20038;-73
2021/11/22 00:54:30;;;;;;;13.07;2.73;;;4.70;96.60;;;;;;5036578;28;20441;-74
2021/11/22 00:56:56;;;;;;;4.07;0.70;;;4.70;96.60;;;;;;5018709;28;20399;-73
2021/11/22 00:59:22;;;;;;;4.67;0.73;;;4.70;96.60;;;;;;5035242;28;20068;-73
2021/11/22 01:01:50;;;;;;;5.43;0.60;;;4.70;96.90;;;;;;5051884;28;20069;-73
2021/11/22 01:04:16;;;;;;;3.63;0.60;;;4.70;96.60;;;;;;5035249;28;20375;-73
2021/11/22 01:06:42;;;;;;;6.27;1.07;;;4.70;96.90;;;;;;5035011;28;20041;-73
2021/11/22 01:09:08;;;;;;;2.80;0.90;;;4.80;96.90;;;;;;5036305;28;20028;-73
2021/11/22 01:11:33;;;;;;;5.43;0.80;;;4.70;96.90;;;;;;5036338;28;20080;-74
2021/11/22 01:13:59;;;;;;;4.63;0.63;;;4.80;97.10;;;;;;5036236;28;20037;-73
2021/11/22 01:16:26;;;;;;;4.83;0.90;;;4.80;97.40;;;;;;5036074;28;20547;-73
2021/11/22 01:18:52;;;;;;;4.33;0.77;;;4.80;97.20;;;;;;5036149;28;20033;-73
2021/11/22 01:21:17;;;;;;;5.37;0.90;;;4.80;97.10;;;;;;5036042;28;20072;-72
2021/11/22 01:23:43;;;;;;;4.17;0.80;;;4.90;97.20;;;;;;5034715;28;20041;-73
2021/11/22 01:26:08;;;;;;;3.70;0.60;;;4.90;97.20;;;;;;5035958;28;20040;-73
2021/11/22 01:28:34;;;;;;;7.63;0.70;;;4.90;97.20;;;;;;5036016;28;20037;-75
2021/11/22 01:31:00;;;;;;;4.20;0.60;;;4.90;97.30;;;;;;5051472;28;20460;-73
2021/11/22 01:33:26;;;;;;;6.70;0.93;;;4.90;97.40;;;;;;5034767;28;20033;-73
2021/11/22 01:35:52;;;;;;;6.37;0.60;;;5.00;97.40;;;;;;5035863;28;20389;-73
2021/11/22 01:38:18;;;;;;;6.40;0.63;;;4.90;97.60;;;;;;5035595;28;20541;-73
2021/11/22 01:40:46;;;;;;;3.73;0.80;;;4.90;97.60;;;;;;5051074;28;20445;-73
2021/11/22 01:43:14;;;;;;;4.20;0.70;;;4.90;97.70;;;;;;5035817;28;20094;-74
2021/11/22 01:45:41;;;;;;;3.77;0.50;;;4.90;97.80;;;;;;5035514;28;20045;-75
2021/11/22 01:48:07;;;;;;;2.30;1.00;;;5.00;97.90;;;;;;5034428;28;20112;-75
2021/11/22 01:50:33;;;;;;;7.50;0.80;;;5.00;98.00;;;;;;5050824;28;20132;-75
2021/11/22 01:52:58;;;;;;;4.70;1.20;;;5.00;98.00;;;;;;5034370;28;20025;-76
2021/11/22 01:55:26;;;;;;;5.77;0.90;;;5.00;97.90;;;;;;5050693;28;20478;-75
2021/11/22 01:57:53;;;;;;;6.93;0.83;;;5.00;98.00;;;;;;5034641;28;20120;-75
2021/11/22 02:00:32;;;;;;;6.73;1.00;;;5.00;98.10;;;;;;5035393;28;20034;-75
2021/11/22 02:02:59;;;;;;;3.33;0.90;;;5.00;98.10;;;;;;5035557;28;20100;-75
2021/11/22 02:05:25;;;;;;;6.33;0.97;;;5.00;98.20;;;;;;5035219;28;20033;-74
2021/11/22 02:07:51;;;;;;;2.73;0.87;;;5.10;98.10;;;;;;5035206;28;20021;-74
2021/11/22 02:10:17;;;;;;;7.90;0.97;;;5.00;98.10;;;;;;5050494;28;20398;-74
2021/11/22 02:12:43;;;;;;;3.23;0.70;;;5.00;98.10;;;;;;5050417;28;20029;-74
2021/11/22 02:15:11;;;;;;;3.27;0.80;;;5.00;98.10;;;;;;5035063;28;20059;-74
2021/11/22 02:17:39;;;;;;;8.57;0.93;;;5.10;98.20;;;;;;5035026;28;20056;-74
2021/11/22 02:20:27;;;;;;;2.47;0.97;;;5.00;98.20;;;;;;5066892;28;20080;-74
2021/11/22 02:22:55;;;;;;;5.97;0.77;;;5.10;98.20;;;;;;5034978;28;20029;-74
2021/11/22 02:25:23;;;;;;;4.33;0.70;;;5.00;98.20;;;;;;5034789;28;20576;-74
2021/11/22 02:27:49;;;;;;;7.53;1.03;;;5.10;98.20;;;;;;5034926;28;20080;-74
2021/11/22 02:30:18;;;;;;;5.83;1.10;;;5.00;98.10;;;;;;5034835;28;20025;-73
2021/11/22 02:32:45;;;;;;;6.17;0.87;;;5.10;98.10;;;;;;5034781;28;20382;-73
2021/11/22 02:35:14;;;;;;;3.60;0.97;;;5.00;98.10;;;;;;5034682;28;20079;-73
2021/11/22 02:37:40;;;;;;;5.83;1.00;;;5.00;98.10;;;;;;5034729;28;20033;-73
2021/11/22 02:40:07;;;;;;;5.10;1.30;;;5.00;98.00;;;;;;5049794;28;20049;-73
2021/11/22 02:42:41;;;;;;;3.70;0.70;;;5.00;98.10;;;;;;5033188;28;20038;-76
2021/11/22 02:45:09;;;;;;;3.22;0.82;;;5.00;98.00;;;;;;5034522;28;20029;-75
2021/11/22 02:47:35;;;;;;;5.83;0.83;;;5.00;98.10;;;;;;5034423;28;20029;-75
2021/11/22 02:50:00;;;;;;;6.30;0.90;;;5.00;98.00;;;;;;5034493;28;20088;-74
2021/11/22 02:52:26;;;;;;;6.97;0.97;;;5.00;98.00;;;;;;5034299;28;20489;-74
2021/11/22 02:54:52;;;;;;;4.73;1.10;;;5.00;98.00;;;;;;5049742;28;20064;-75
2021/11/22 02:57:17;;;;;;;8.53;1.00;;;5.00;98.10;;;;;;5049618;28;20114;-74
2021/11/22 02:59:43;;;;;;;5.83;1.00;;;4.90;98.00;;;;;;5049414;28;20030;-75
2021/11/22 03:02:12;;;;;;;4.13;0.70;;;4.90;98.10;;;;;;5032996;28;20037;-75
2021/11/22 03:04:40;;;;;;;3.37;0.90;;;4.90;98.10;;;;;;5034152;28;20095;-75
2021/11/22 03:07:06;;;;;;;3.07;0.77;;;4.90;98.00;;;;;;5065864;28;20465;-75
2021/11/22 03:09:32;;;;;;;6.20;1.07;;;4.90;98.00;;;;;;5066024;28;20381;-75
2021/11/22 03:12:02;;;;;;;10.43;1.47;;;4.90;98.00;;;;;;5032937;28;20038;-75
2021/11/22 03:14:28;;;;;;;3.63;0.90;;;4.90;98.00;;;;;;5033974;28;20028;-75
2021/11/22 03:16:54;;;;;;;8.00;1.00;;;4.90;98.00;;;;;;5033860;28;20037;-75
2021/11/22 03:19:21;;;;;;;6.17;0.90;;;4.90;98.00;;;;;;5032794;28;20133;-75
2021/11/22 03:21:47;;;;;;;5.17;0.83;;;4.80;98.00;;;;;;5033861;28;20474;-74
2021/11/22 03:24:14;;;;;;;3.53;0.77;;;4.80;98.00;;;;;;5033761;28;20040;-74
2021/11/22 03:26:40;;;;;;;3.60;0.90;;;4.80;97.90;;;;;;5016129;28;20437;-74
2021/11/22 03:29:06;;;;;;;3.77;0.83;;;4.80;97.80;;;;;;5016119;28;20029;-74
2021/11/22 03:31:33;;;;;;;5.53;1.17;;;4.90;97.90;;;;;;5032453;28;20487;-74
2021/11/22 03:34:03;;;;;;;3.67;0.70;;;4.80;98.00;;;;;;5048954;28;20030;-74
2021/11/22 03:36:31;;;;;;;4.07;0.70;;;4.80;97.90;;;;;;5065523;28;20022;-74
2021/11/22 03:38:57;;;;;;;8.63;1.27;;;4.80;98.00;;;;;;5033382;28;20056;-74
2021/11/22 03:41:24;;;;;;;4.60;0.80;;;4.70;98.00;;;;;;5032357;28;20033;-74
2021/11/22 03:44:09;;;;;;;7.83;1.00;;;4.80;98.00;;;;;;5065518;28;20401;-74
2021/11/22 03:46:36;;;;;;;6.27;1.00;;;4.70;98.20;;;;;;5032394;28;20045;-74
2021/11/22 03:49:02;;;;;;;8.73;0.73;;;4.70;97.90;;;;;;5065527;28;20084;-74
2021/11/22 03:51:28;;;;;;;8.23;1.10;;;4.70;97.80;;;;;;5033406;28;20033;-74
2021/11/22 03:53:53;;;;;;;5.57;1.00;;;4.70;97.90;;;;;;5032247;28;20060;-74
2021/11/22 03:56:19;;;;;;;6.43;0.87;;;4.80;97.90;;;;;;5065186;28;20072;-74
2021/11/22 03:58:45;;;;;;;5.73;1.00;;;4.70;97.90;;;;;;5033275;28;20084;-74
2021/11/22 04:01:11;;;;;;;5.53;0.70;;;4.70;97.90;;;;;;5031995;28;20519;-74
2021/11/22 04:03:37;;;;;;;7.60;1.07;;;4.60;97.90;;;;;;5033305;28;20029;-74
2021/11/22 04:06:03;;;;;;;6.07;0.80;;;4.60;97.90;;;;;;5033026;28;20112;-74
2021/11/22 04:08:29;;;;;;;3.70;0.70;;;4.60;97.90;;;;;;5033155;28;20109;-74
2021/11/22 04:10:54;;;;;;;4.00;1.43;;;4.60;97.90;;;;;;5032011;28;20489;-74
2021/11/22 04:13:20;;;;;;;4.33;0.90;;;4.60;97.90;;;;;;5032026;28;20476;-74
2021/11/22 04:15:46;;;;;;;3.17;0.87;;;4.60;97.90;;;;;;5048540;28;20034;-74
2021/11/22 04:18:13;;;;;;;2.63;0.60;;;4.60;97.90;;;;;;5033056;28;20045;-74
2021/11/22 04:20:39;;;;;;;6.70;0.70;;;4.60;97.80;;;;;;5051046;28;20029;-74
2021/11/22 04:23:05;;;;;;;6.37;0.83;;;4.60;97.80;;;;;;5037135;28;20037;-74
2021/11/22 04:25:32;;;;;;;5.30;0.73;;;4.60;97.80;;;;;;5037162;28;20033;-74
2021/11/22 04:27:58;;;;;;;8.17;0.90;;;4.60;97.90;;;;;;5069093;28;20537;-74
2021/11/22 04:30:24;;;;;;;5.87;0.90;;;4.60;97.90;;;;;;5019370;28;20138;-74
2021/11/22 04:32:50;;;;;;;3.50;0.60;;;4.50;97.80;;;;;;5036933;28;20071;-74
2021/11/22 04:35:16;;;;;;;2.47;1.00;;;4.50;97.90;;;;;;5037185;28;20029;-75
2021/11/22 04:37:42;;;;;;;9.33;0.90;;;4.50;97.90;;;;;;5052344;28;20033;-74
2021/11/22 04:40:11;;;;;;;8.87;1.10;;;4.50;97.90;;;;;;5036832;28;20053;-75
2021/11/22 04:42:37;;;;;;;5.97;0.90;;;4.50;97.80;;;;;;5036866;28;20026;-75
2021/11/22 04:45:03;;;;;;;5.70;1.73;;;4.50;97.80;;;;;;5035512;28;20087;-75
2021/11/22 04:47:29;;;;;;;5.00;0.83;;;4.50;97.80;;;;;;5068630;28;20026;-74
2021/11/22 04:49:55;;;;;;;3.50;0.70;;;4.50;97.80;;;;;;5051990;28;20355;-75
2021/11/22 04:52:22;;;;;;;4.13;0.80;;;4.50;97.80;;;;;;5035463;28;20036;-75
2021/11/22 04:54:48;;;;;;;6.10;1.30;;;4.40;97.70;;;;;;5051936;28;20083;-75
2021/11/22 04:57:15;;;;;;;6.03;1.10;;;4.40;97.70;;;;;;5036722;28;20026;-74
2021/11/22 04:59:41;;;;;;;6.37;0.87;;;4.40;97.80;;;;;;5051718;28;20459;-75
2021/11/22 05:02:09;;;;;;;7.37;1.10;;;4.40;97.80;;;;;;5068445;28;20068;-75
2021/11/22 05:04:36;;;;;;;3.47;0.80;;;4.40;97.80;;;;;;5068499;28;20148;-75
2021/11/22 05:07:02;;;;;;;3.80;0.80;;;4.40;97.70;;;;;;5051802;28;20120;-75
2021/11/22 05:09:28;;;;;;;2.43;0.67;;;4.30;97.70;;;;;;5036451;28;20028;-75
2021/11/22 05:11:54;;;;;;;5.37;0.87;;;4.40;97.70;;;;;;5035127;28;20034;-75
2021/11/22 05:14:20;;;;;;;4.33;0.97;;;4.30;97.70;;;;;;5036424;28;20414;-75
2021/11/22 05:16:46;;;;;;;4.63;0.80;;;4.30;97.70;;;;;;5034927;28;20037;-75
2021/11/22 05:19:13;;;;;;;3.47;0.80;;;4.30;97.80;;;;;;5018626;28;20095;-74
2021/11/22 05:21:39;;;;;;;4.57;0.73;;;4.30;97.80;;;;;;5068056;28;20025;-74
2021/11/22 05:24:06;;;;;;;5.17;0.70;;;4.30;97.70;;;;;;5067983;28;20029;-73
2021/11/22 05:26:32;;;;;;;3.53;0.83;;;4.30;97.80;;;;;;5034885;28;20488;-74
2021/11/22 05:28:58;;;;;;;3.70;0.70;;;4.30;97.70;;;;;;5068010;28;20052;-74
2021/11/22 05:31:24;;;;;;;7.23;0.97;;;4.20;97.70;;;;;;5035540;28;20029;-74
2021/11/22 05:33:51;;;;;;;5.83;1.10;;;4.30;97.70;;;;;;5067937;28;20076;-74
2021/11/22 05:36:17;;;;;;;4.60;0.87;;;4.20;97.70;;;;;;5077571;28;20047;-74
2021/11/22 05:38:43;;;;;;;4.17;0.80;;;4.20;97.70;;;;;;5054441;28;20078;-74
2021/11/22 05:41:08;;;;;;;4.90;0.80;;;4.20;97.70;;;;;;5054250;28;20478;-75
2021/11/22 05:43:36;;;;;;;7.07;1.07;;;4.20;97.70;;;;;;5053262;28;20032;-74
2021/11/22 05:46:03;;;;;;;7.03;1.17;;;4.10;97.70;;;;;;5054344;28;20029;-74
2021/11/22 05:48:29;;;;;;;5.27;0.57;;;4.10;97.60;;;;;;5054423;28;20104;-76
2021/11/22 05:50:56;;;;;;;6.90;1.20;;;4.20;97.70;;;;;;5053461;28;20115;-74
2021/11/22 05:53:22;;;;;;;4.47;0.90;;;4.10;97.60;;;;;;5054274;28;20430;-75
2021/11/22 05:55:51;;;;;;;6.87;0.93;;;4.10;97.70;;;;;;5055406;28;20053;-75
2021/11/22 05:58:18;;;;;;;1.93;0.57;;;4.10;97.70;;;;;;5055263;28;20474;-75
2021/11/22 06:00:44;;;;;;;4.30;0.90;;;4.10;97.70;;;;;;5055287;28;20033;-75
2021/11/22 06:03:10;;;;;;;5.77;0.77;;;4.10;97.70;;;;;;5054087;28;20033;-75
2021/11/22 06:05:36;;;;;;;5.07;1.10;;;4.10;97.70;;;;;;5053941;28;20031;-74
2021/11/22 06:08:02;;;;;;;8.50;1.00;;;4.10;97.70;;;;;;5054153;28;20033;-75
2021/11/22 06:10:29;;;;;;;4.10;0.80;;;4.10;97.70;;;;;;5045247;28;20040;-75
2021/11/22 06:12:54;;;;;;;3.90;0.90;;;4.10;97.70;;;;;;5035168;28;20413;-75
2021/11/22 06:15:22;;;;;;;5.20;0.90;;;4.00;97.60;;;;;;5040129;28;20041;-75
2021/11/22 06:17:48;;;;;;;2.80;0.70;;;4.00;97.60;;;;;;5033749;28;20025;-75
2021/11/22 06:20:14;;;;;;;5.30;0.77;;;4.00;97.60;;;;;;5029413;28;20029;-75
2021/11/22 06:22:41;;;;;;;4.17;0.80;;;4.10;97.70;;;;;;5052791;28;20082;-75
2021/11/22 06:25:07;;;;;;;5.03;0.80;;;4.00;97.70;;;;;;5054129;28;20474;-75
2021/11/22 06:27:34;;;;;;;4.23;1.03;;;4.00;97.70;;;;;;5053226;28;20083;-75
2021/11/22 06:29:59;;;;;;;2.70;0.77;;;4.00;97.70;;;;;;5053533;28;20017;-75
2021/11/22 06:32:27;;;;;;;3.70;0.60;;;4.00;97.60;;;;;;5054110;28;20025;-75
2021/11/22 06:34:54;;;;;;;5.67;1.03;;;4.00;97.60;;;;;;5053835;28;20025;-75
2021/11/22 06:37:21;;;;;;;3.10;0.90;;;4.00;97.60;;;;;;5052689;28;20060;-75
2021/11/22 06:39:47;;;;;;;6.63;0.77;;;4.00;97.60;;;;;;5053952;28;20590;-75
2021/11/22 06:42:12;;;;;;;4.37;0.70;;;3.90;97.60;;;;;;5053764;28;20033;-75
2021/11/22 06:44:38;;;;;;;2.30;0.90;;;3.90;97.50;;;;;;5053120;28;20029;-75
2021/11/22 06:47:04;;;;;;;4.47;1.00;;;3.90;97.60;;;;;;5053104;28;20029;-75
2021/11/22 06:49:31;;;;;;;3.57;0.83;;;3.90;97.60;;;;;;5053223;28;20486;-75
2021/11/22 06:51:57;;;;;;;5.90;1.23;;;3.90;97.60;;;;;;5054148;28;20021;-75
2021/11/22 06:54:23;;;;;;;5.03;1.10;;;3.90;97.60;;;;;;5054755;28;20392;-75
2021/11/22 06:56:50;;;;;;;7.83;1.07;;;3.90;97.60;;;;;;5054162;28;20081;-76
2021/11/22 06:59:15;;;;;;;7.80;1.10;;;3.90;97.70;;;;;;5054093;28;20029;-75
2021/11/22 07:01:41;;;;;;;6.23;0.90;;;3.90;97.60;;;;;;5054033;28;20408;-75
2021/11/22 07:04:07;;;;;;;4.87;0.80;;;3.90;97.60;;;;;;5054019;28;20029;-75
2021/11/22 07:06:33;;;;;;;6.37;1.23;;;3.80;97.60;;;;;;5053797;28;20029;-74
2021/11/22 07:08:59;;;;;;;7.37;1.23;;;3.80;97.60;;;;;;5036060;28;20032;-74
2021/11/22 07:11:24;;;;;;;4.83;0.90;;;3.80;97.60;;;;;;5052335;28;20355;-74
2021/11/22 07:13:50;;;;;;;3.77;0.93;;;3.80;97.60;;;;;;5052278;28;20013;-74
2021/11/22 07:16:16;;;;;;;6.93;1.17;;;3.80;97.60;;;;;;5053233;28;20036;-74
2021/11/22 07:18:42;;;;;;;5.63;1.00;;;3.80;97.60;;;;;;5052171;28;20037;-74
2021/11/22 07:21:08;;;;;;;2.40;0.80;;;3.80;97.60;;;;;;5050956;28;20029;-74
2021/11/22 07:23:34;;;;;;;3.33;0.80;;;3.80;97.60;;;;;;5034340;28;20033;-74
2021/11/22 07:26:00;;;;;;;4.07;1.00;;;3.70;97.50;;;;;;5034604;28;20028;-74
2021/11/22 07:28:26;;;;;;;4.67;0.93;;;3.70;97.50;;;;;;5051114;28;20032;-74
2021/11/22 07:30:53;;;;;;;3.33;0.93;;;3.70;97.50;;;;;;5034989;28;20043;-76
2021/11/22 07:33:19;;;;;;;2.37;0.80;;;3.70;97.60;;;;;;5053007;28;20013;-74
2021/11/22 07:35:45;;;;;;;3.17;0.83;;;3.70;97.60;;;;;;5035401;28;20032;-74
2021/11/22 07:38:12;;;;;;;6.10;1.13;;;3.70;97.60;;;;;;5051788;28;20031;-74
2021/11/22 07:40:38;;;;;;;6.20;1.07;;;3.70;97.70;;;;;;5053014;28;20121;-74
2021/11/22 07:43:04;;;;;;;4.00;1.20;;;3.70;97.70;;;;;;5049016;28;20496;-74
2021/11/22 07:45:30;;;;;;;8.47;1.50;;;3.70;97.80;;;;;;5051901;28;20040;-74
2021/11/22 07:47:57;;;;;;;6.80;1.17;;;3.70;97.80;;;;;;5035337;28;20120;-74
2021/11/22 07:50:25;;;;;;;5.17;1.10;;;3.70;97.80;;;;;;5053191;28;20551;-75
2021/11/22 07:52:51;;;;;;;5.73;1.10;;;3.80;97.80;;;;;;5053028;28;20099;-75
2021/11/22 07:55:20;;;;;;;3.33;1.00;;;3.70;97.90;;;;;;5051826;28;20029;-75
2021/11/22 07:57:46;;;;;;;5.13;1.20;;;3.70;97.90;;;;;;5052765;28;20021;-75
2021/11/22 08:00:12;;;;;;;7.83;1.00;;;3.70;98.20;;;;;;5051725;28;20476;-75
2021/11/22 08:02:39;;;;;;;2.60;1.00;;;3.70;97.90;;;;;;5035045;28;20406;-74
2021/11/22 08:05:06;;;;;;;3.60;0.90;;;3.80;98.00;;;;;;5051768;28;20023;-74
2021/11/22 08:07:36;;;;;;;7.30;1.00;;;3.80;98.00;;;;;;5035204;28;20044;-74
2021/11/22 08:10:05;;;;;;;6.37;0.90;;;3.90;98.00;;;;;;5051662;28;20029;-74
2021/11/22 08:12:33;;;;;;;5.57;1.10;;;3.90;98.00;;;;;;5051573;28;20070;-74
2021/11/22 08:15:08;;;;;;;2.77;0.90;;;3.90;98.30;;;;;;5052542;28;20025;-74
2021/11/22 08:17:38;;;;;;;5.93;1.10;;;3.90;98.00;;;;;;5052977;28;20041;-74
2021/11/22 08:20:08;;;;;;;3.73;0.83;;;4.00;98.10;;;;;;5035366;28;20021;-74
2021/11/22 08:22:34;;;;;;;5.60;0.80;;;4.00;98.00;;;;;;5052763;28;20013;-74
2021/11/22 08:25:00;;;;;;;2.77;0.93;;;4.00;98.00;;;;;;5052744;28;20029;-74
2021/11/22 08:27:28;;;;;;;4.97;0.93;;;4.00;98.00;;;;;;5052491;28;20461;-74
2021/11/22 08:29:55;;;;;;;2.90;0.70;;;4.10;98.00;;;;;;5050965;28;20040;-74
2021/11/22 08:32:21;;;;;;;6.17;0.93;;;4.10;98.10;;;;;;5052728;28;20029;-74
2021/11/22 08:34:47;;;;;;;2.50;0.70;;;4.10;98.10;;;;;;5052511;28;20032;-74
2021/11/22 08:37:13;;;;;;;4.67;0.93;;;4.20;98.10;;;;;;5052923;28;20105;-74
2021/11/22 08:39:39;;;;;;;2.97;0.77;;;4.20;98.10;;;;;;5052536;28;20087;-74
2021/11/22 08:42:06;;;;;;;3.80;0.87;;;4.20;98.10;;;;;;5052742;28;20473;-74
2021/11/22 08:44:33;;;;;;;4.17;0.90;;;4.30;98.10;;;;;;5051635;28;20032;-74
2021/11/22 08:47:03;;;;;;;4.50;0.90;;;4.40;98.20;;;;;;5034699;28;20134;-74
2021/11/22 08:49:29;;;;;;;6.50;0.80;;;4.40;98.20;;;;;;5052678;28;20021;-74
2021/11/22 08:51:54;;;;;;;5.70;0.70;;;4.40;98.20;;;;;;5034792;28;20111;-74
2021/11/22 08:54:20;;;;;;;9.87;1.00;;;4.60;98.20;;;;;;5051435;28;20021;-74
2021/11/22 08:56:46;;;;;;;1.97;0.70;;;4.50;98.20;;;;;;5052558;28;20431;-74
2021/11/22 08:59:12;;;;;;;5.73;0.80;;;4.60;98.20;;;;;;5052251;28;20033;-74
2021/11/22 09:01:38;;;;;;;5.03;0.63;;;4.70;98.50;;;;;;5052377;28;20040;-74
2021/11/22 09:04:05;;;;;;;2.80;0.90;;;4.70;98.40;;;;;;5034859;28;20059;-74
2021/11/22 09:06:33;;;;;;;6.10;0.93;;;4.70;98.20;;;;;;5054648;28;20033;-74
2021/11/22 09:08:58;;;;;;;5.10;0.90;;;4.80;98.20;;;;;;5056230;28;20100;-75
2021/11/22 09:11:24;;;;;;;7.60;0.77;;;4.90;98.20;;;;;;5056214;28;20242;-75
2021/11/22 09:13:50;;;;;;;1.97;0.80;;;4.90;98.30;;;;;;5056191;28;20025;-74
2021/11/22 09:16:15;;;;;;;3.53;0.60;;;5.00;98.40;;;;;;5056067;28;20104;-74
2021/11/22 09:18:41;;;;;;;2.37;0.90;;;5.20;98.50;;;;;;5056026;28;20470;-74
2021/11/22 09:21:07;;;;;;;2.33;0.60;;;5.30;98.50;;;;;;5055948;28;20111;-74
2021/11/22 09:23:33;;;;;;;4.07;0.50;;;5.50;98.60;;;;;;5054671;28;20021;-74
2021/11/22 09:26:00;;;;;;;4.43;0.50;;;5.80;98.70;;;;;;5055748;28;20116;-74
2021/11/22 09:28:25;;;;;;;2.13;0.60;;;6.10;99.00;;;;;;5055915;28;20100;-74
2021/11/22 09:30:51;;;;;;;2.40;0.60;;;6.60;99.30;;;;;;5037886;28;20052;-74
2021/11/22 09:33:17;;;;;;;3.07;0.53;;;7.10;99.80;;;;;;5053538;28;20023;-76
2021/11/22 09:35:43;;;;;;;6.17;0.60;;;7.80;99.90;;;;;;5054702;28;20041;-74
2021/11/22 09:38:09;;;;;;;1.13;0.40;;;8.50;99.90;;;;;;5054220;28;20075;-74
2021/11/22 09:40:36;;;;;;;4.72;0.40;;;9.30;99.90;;;;;;5055208;28;20549;-73
2021/11/22 09:43:03;;;;;;;2.35;0.40;;;10.20;99.90;;;;;;5055493;28;20469;-75
2021/11/22 09:45:29;;;;;;;5.55;0.40;;;11.10;99.90;;;;;;5054222;28;20547;-75
2021/11/22 09:47:57;;;;;;;2.60;0.50;;;11.90;99.90;;;;;;5054205;28;20046;-75
2021/11/22 09:50:23;;;;;;;1.98;0.43;;;12.60;99.90;;;;;;5055392;28;20111;-74
2021/11/22 09:52:48;;;;;;;4.55;0.40;;;13.30;99.30;;;;;;5055290;28;20568;-75
2021/11/22 09:55:14;;;;;;;1.20;0.30;;;14.10;98.80;;;;;;5037923;28;20032;-74
2021/11/22 09:57:40;;;;;;;3.78;0.40;;;14.90;97.90;;;;;;5053990;28;20478;-74
2021/11/22 10:00:07;;;;;;;3.50;0.40;;;15.50;96.00;;;;;;5053228;28;20047;-74
2021/11/22 10:02:48;;;;;;;4.28;0.45;;;16.00;94.80;;;;;;5053658;28;20107;-74
2021/11/22 10:05:33;;;;;;;2.15;0.40;;;16.70;92.60;;;;;;5054105;28;20111;-74
2021/11/22 10:08:06;;;;;;;2.88;0.25;;;17.30;90.20;;;;;;5053816;28;20111;-75
2021/11/22 10:10:42;;;;;;;2.85;0.47;;;17.70;88.40;;;;;;5053245;28;20504;-75
2021/11/22 10:13:24;;;;;;;2.05;0.30;;;18.10;85.00;;;;;;5035013;28;20025;-75
2021/11/22 10:16:16;;;;;;;6.07;0.40;;;18.40;82.00;;;;;;5033800;28;20433;-74
2021/11/22 10:18:49;;;;;;;3.08;0.30;;;18.80;80.00;;;;;;5031260;28;20060;-74
2021/11/22 10:21:21;;;;;;;3.47;0.38;;;18.90;79.50;;;;;;5033656;28;20113;-74
2021/11/22 10:23:50;;;;;;;3.17;0.20;;;19.10;76.80;;;;;;5054596;28;20021;-74
2021/11/22 10:26:16;;;;;;;3.72;0.35;;;19.40;74.30;;;;;;5054654;28;20029;-75
2021/11/22 10:28:48;;;;;;;1.60;0.25;;;19.50;71.10;;;;;;5054016;28;20029;-75
2021/11/22 10:31:21;;;;;;;1.40;0.25;;;19.40;68.30;;;;;;5053289;28;20108;-75
2021/11/22 10:33:48;;;;;;;;;;;19.20;65.70;;;;;;5055088;28;20028;-75
2021/11/22 10:36:17;;;;;;;3.20;0.47;;;18.90;63.30;;;;;;5054631;28;19908;-74
2021/11/22 10:38:53;;;;;;;3.03;0.40;;;18.90;65.50;;;;;;5054467;28;20179;-74
2021/11/22 10:41:43;;;;;;;1.00;0.30;;;19.10;62.90;;;;;;5053305;28;20029;-74
2021/11/22 10:44:12;;;;;;;5.10;0.30;;;19.50;61.20;;;;;;5054456;28;20080;-74
2021/11/22 10:46:46;;;;;;;2.22;0.32;;;19.90;60.90;;;;;;5053077;28;20025;-75
2021/11/22 10:49:16;;;;;;;1.50;0.30;;;20.20;60.00;;;;;;5053801;28;20078;-74
2021/11/22 10:51:49;;;;;;;3.42;0.40;;;20.60;58.50;;;;;;5052978;28;20115;-76
2021/11/22 10:54:17;;;;;;;1.98;0.30;;;20.90;55.40;;;;;;5053004;28;20051;-74
2021/11/22 10:56:50;;;;;;;1.15;0.40;;;21.10;54.70;;;;;;5054268;28;20033;-74
2021/11/22 10:59:17;;;;;;;1.33;0.20;;;21.20;53.40;;;;;;5053941;28;20489;-74
2021/11/22 11:01:43;;;;;;;1.50;0.35;;;21.30;52.50;;;;;;5053920;28;20033;-76
2021/11/22 11:04:09;;;;;;;2.20;0.20;;;21.50;51.10;;;;;;5053898;28;20040;-74
2021/11/22 11:06:49;;;;;;;2.70;0.40;;;21.50;51.20;;;;;;5053716;28;20495;-74
2021/11/22 11:09:30;;;;;;;2.88;0.40;;;21.50;51.30;;;;;;5051448;28;20468;-74
2021/11/22 11:12:05;;;;;;;1.15;0.30;;;21.60;50.40;;;;;;5053498;28;20032;-74
2021/11/22 11:14:32;;;;;;;2.00;0.30;;;21.60;50.40;;;;;;5052520;28;20036;-74
2021/11/22 11:17:18;;;;;;;1.38;0.35;;;21.50;49.70;;;;;;5036044;28;20032;-74
2021/11/22 11:19:47;;;;;;;1.25;0.20;;;21.30;47.80;;;;;;5049760;28;20078;-74
2021/11/22 11:22:13;;;;;;;1.42;0.50;;;21.00;46.30;;;;;;5052399;28;20025;-77
2021/11/22 11:24:39;;;;;;;4.53;0.50;;;20.80;46.60;;;;;;5052328;28;20025;-76
2021/11/22 11:27:05;;;;;;;5.35;0.40;;;20.50;45.90;;;;;;5053490;28;20036;-76
2021/11/22 11:29:32;;;;;;;0.77;0.20;;;20.30;46.30;;;;;;5051871;28;20024;-76
2021/11/22 11:31:58;;;;;;;0.80;0.20;;;20.10;46.10;;;;;;5052304;28;20048;-76
2021/11/22 11:34:29;;;;;;;2.33;0.30;;;20.00;46.40;;;;;;5053411;28;20481;-76
2021/11/22 11:37:18;;;;;;;2.10;0.30;;;19.90;46.70;;;;;;5053239;28;20063;-76
2021/11/22 11:40:03;;;;;;;1.65;0.30;;;20.00;47.10;;;;;;5052575;28;20486;-75
2021/11/22 11:43:06;;;;;;;2.88;0.40;;;19.90;47.10;;;;;;5050290;28;20025;-76
2021/11/22 11:45:43;;;;;;;1.92;0.30;;;20.10;46.30;;;;;;5033162;28;20485;-76
2021/11/22 11:48:17;;;;;;;1.85;0.30;;;20.30;46.60;;;;;;5046611;28;20017;-76
2021/11/22 11:50:46;;;;;;;2.55;0.60;;;20.40;46.00;;;;;;5050906;28;20028;-76
2021/11/22 11:53:15;;;;;;;3.53;0.30;;;20.60;45.60;;;;;;5051340;28;20032;-76
2021/11/22 11:55:43;;;;;;;1.35;0.20;;;20.80;45.30;;;;;;5049881;28;20029;-76
2021/11/22 11:58:27;;;;;;;2.75;0.30;;;21.10;45.40;;;;;;5052494;28;20045;-76
2021/11/22 12:00:55;;;;;;;1.63;0.40;;;21.40;45.80;;;;;;5051806;28;20028;-76
2021/11/22 12:03:23;;;;;;;1.80;0.30;;;21.70;45.70;;;;;;5051994;28;20029;-76
2021/11/22 12:05:51;;;;;;;2.40;0.45;;;22.10;44.70;;;;;;5051398;28;20044;-76
2021/11/22 12:08:33;;;;;;;2.60;0.20;;;22.50;44.00;;;;;;5052871;28;20021;-77
2021/11/22 12:11:05;;;;;;;1.75;0.47;;;22.80;42.40;;;;;;5051742;28;20445;-77
2021/11/22 12:13:55;;;;;;;1.52;0.20;;;23.10;42.50;;;;;;5051519;28;20100;-76
2021/11/22 12:17:08;;;;;;;1.80;0.22;;;23.30;41.90;;;;;;5051647;28;20112;-77
2021/11/22 12:19:41;;;;;;;0.90;0.20;;;23.50;41.80;;;;;;5052915;28;20033;-75
2021/11/22 12:22:15;;;;;;;0.98;0.20;;;23.80;42.10;;;;;;5052718;28;20025;-75
2021/11/22 12:24:41;;;;;;;;;;;24.10;41.00;;;;;;5053099;28;20377;-75
2021/11/22 12:27:29;;;;;;;1.02;0.20;;;24.30;41.30;;;;;;5051291;28;20012;-76
2021/11/22 12:29:59;;;;;;;1.55;0.32;;;24.60;40.40;;;;;;5051337;28;20346;-76
2021/11/22 12:32:31;;;;;;;1.02;0.20;;;24.70;39.80;;;;;;5051691;28;20031;-76
2021/11/22 12:34:59;;;;;;;1.40;0.25;;;24.80;39.30;;;;;;5049078;28;20079;-75
2021/11/22 12:37:34;;;;;;;1.20;0.20;;;25.10;39.60;;;;;;5052626;28;20029;-76
2021/11/22 12:40:08;;;;;;;2.28;0.32;;;25.30;38.30;;;;;;5052496;28;20489;-77
2021/11/22 12:42:45;;;;;;;1.13;0.20;;;25.50;37.60;;;;;;5055313;28;20388;-76
2021/11/22 12:45:11;;;;;;;3.25;0.30;;;25.60;37.00;;;;;;5056479;28;20040;-76
2021/11/22 12:47:37;;;;;;;1.20;0.20;;;25.70;37.20;;;;;;5055336;28;20033;-76
2021/11/22 12:50:18;;;;;;;2.60;0.30;;;25.80;36.30;;;;;;5037544;28;20048;-76
2021/11/22 12:53:07;;;;;;;0.70;0.10;;;25.80;35.50;;;;;;5056506;28;20465;-76
2021/11/22 12:55:45;;;;;;;2.55;0.22;;;25.80;35.40;;;;;;5036565;28;20116;-76
2021/11/22 12:58:14;;;;;;;0.93;0.20;;;25.80;35.70;;;;;;5035283;28;20034;-76
2021/11/22 13:00:42;;;;;;;1.33;0.20;;;25.90;36.10;;;;;;5036250;28;20462;-76